Airfield :
LOGIN :

Register | Disclaimer

   EN    FR    IT 

 










Legend :    VFR   Marginal VFR   IFR   Intensive IFR   Very Intensive IFR
Visi :
Ceiling :
>= 8 km
>= 3000ft
5 to 8 km
1000 to 3000 ft
1500m to 5 km
500 to 1000 ft
800 to 1500m
200 to 500 ft
< 800m
< 200 ft
Symbols :   Thunderstorms  Fog  Heavy snow  Heavy precipitations  Wind > 20 kt
SIGMETs :     Misc.  Thunderstorms  Icing  Turbulence  Mountain Waves  Volcanic Ashes







- Airport Elevation : 502 ft
- IATA code : ORK


EICK - Cork

CURRENT METAR :
  • 192230Z 20019KT 4000 -RA FEW002 BKN004 09/09 Q1008 NOSIG

EXPIRED METARs :
  • 192200Z 20018KT 4000 -RA FEW001 BKN004 09/09 Q1008 NOSIG
  • 192130Z 21017KT 4000 -RA FEW001 BKN003 09/09 Q1008 NOSIG
  • 192100Z 21016KT 4000 -RA FEW001 BKN003 09/09 Q1008 NOSIG
  • 192030Z 21017KT 6000 -RA SCT002 BKN004 09/09 Q1008 TEMPO 4000
  • 192000Z 21016KT 8000 -RA FEW002 BKN004 09/09 Q1008 TEMPO 4000
  • 191930Z 21017KT 8000 -RA FEW002 SCT003 BKN004 09/09 Q1008 TEMPO 4000

TAF AMD TAF EICK
Valid from the 19 at 20:00 until the 20 at 18:00 UTC


192004Z 1920/2018 20020G33KT 6000 -RA BKN005
TEMPO 1920/1924 20018KT
TEMPO 1920/2012 2000 BKN002
PROB30
TEMPO 1920/2007 0800 FG BKN001
BECMG 2006/2009 19016KT
PROB40
TEMPO 2007/2011 0400 FG BKN001
TEMPO 2009/2018 19017G27KT
BECMG 2015/2017 3000 -DZ BR BKN002
TEMPO 2016/2018 0800 FG BKN001
No reported NOTAMs for that airfield.



MET'MAP, your aeronautical weather chart ! - Copyright ORBIFLY December 2007 - Disclaimer

ORBIFLY MET'MAP TEAM :

Programming & Development : Alexandra Zaïnal
Concept & Development : Baudouin d'Aumeries
Co-Development & Prog : Marc-Olivier Méhu
Technical & hardware support : Manuel Goepfert

Contact : metmap@orbifly.com




SOURCES & CREDITS :

   NOAA